Time;durP1;ratioP1;P1;durP2;ratioP2;P2;SDS_P1;SDS_P2;PMS_P1;PMS_P2;Temp;Humidity;BMP_temperature;BMP_pressure;BME280_temperature;BME280_humidity;BME280_pressure;Samples;Min_cycle;Max_cycle;Signal;HPM_P1;HPM_P2
2022/03/18 00:00:33;;;;;;;95.80;38.13;;;;;;;;;;5053670;28;20044;-62
2022/03/18 00:02:58;;;;;;;21.40;11.68;;;;;;;;;;5053513;28;20478;-62
2022/03/18 00:05:24;;;;;;;66.68;28.58;;;;;;;;;;5052562;28;20045;-63
2022/03/18 00:07:52;;;;;;;70.72;27.38;;;;;;;;;;5053593;28;20021;-63
2022/03/18 00:10:18;;;;;;;23.35;13.18;;;;;;;;;;5053500;28;20056;-62
2022/03/18 00:12:44;;;;;;;35.00;17.00;;;;;;;;;;5051813;28;20102;-63
2022/03/18 00:15:11;;;;;;;19.48;12.73;;;;;;;;;;5052234;28;20029;-63
2022/03/18 00:17:37;;;;;;;17.92;11.35;;;;;;;;;;5053391;28;20025;-63
2022/03/18 00:20:03;;;;;;;33.42;15.68;;;;;;;;;;5053154;28;20082;-63
2022/03/18 00:22:29;;;;;;;27.95;14.38;;;;;;;;;;5053374;28;20451;-63
2022/03/18 00:24:54;;;;;;;33.45;15.98;;;;;;;;;;5053962;28;20052;-62
2022/03/18 00:27:21;;;;;;;26.15;13.95;;;;;;;;;;5056210;28;20053;-63
2022/03/18 00:29:48;;;;;;;41.05;18.30;;;;;;;;;;5056213;28;20037;-62
2022/03/18 00:32:13;;;;;;;80.68;30.13;;;;;;;;;;5057264;28;20096;-63
2022/03/18 00:34:39;;;;;;;69.65;26.73;;;;;;;;;;5056073;28;20021;-63
2022/03/18 00:37:05;;;;;;;34.15;17.85;;;;;;;;;;5039745;28;20532;-63
2022/03/18 00:39:31;;;;;;;36.40;18.45;;;;;;;;;;5057255;28;20029;-63
2022/03/18 00:41:56;;;;;;;21.70;13.30;;;;;;;;;;5057203;28;20062;-63
2022/03/18 00:44:25;;;;;;;25.88;15.02;;;;;;;;;;5057302;28;20464;-63
2022/03/18 00:46:51;;;;;;;71.97;29.63;;;;;;;;;;5055838;28;20537;-63
2022/03/18 00:52:06;;;;;;;67.95;26.67;;;;;;;;;;5057574;28;20043;-61
2022/03/18 00:54:32;;;;;;;108.60;41.22;;;;;;;;;;5056733;28;20029;-61
2022/03/18 00:56:58;;;;;;;40.08;18.77;;;;;;;;;;5057166;28;20448;-61
2022/03/18 00:59:23;;;;;;;84.38;31.17;;;;;;;;;;5055595;28;20031;-61
2022/03/18 01:01:52;;;;;;;27.55;14.63;;;;;;;;;;5056113;28;20021;-62
2022/03/18 01:04:19;;;;;;;44.70;18.90;;;;;;;;;;5056660;28;20033;-62
2022/03/18 01:06:45;;;;;;;172.40;61.40;;;;;;;;;;5038885;28;20021;-61
2022/03/18 01:09:11;;;;;;;25.05;14.48;;;;;;;;;;5055623;28;20549;-62
2022/03/18 01:11:37;;;;;;;27.60;14.55;;;;;;;;;;5056638;28;20023;-61
2022/03/18 01:14:03;;;;;;;56.15;23.77;;;;;;;;;;5056792;28;20033;-61
2022/03/18 01:16:28;;;;;;;33.78;15.75;;;;;;;;;;5056410;28;20067;-61
2022/03/18 01:18:54;;;;;;;63.03;25.83;;;;;;;;;;5056478;28;20071;-61
2022/03/18 01:21:20;;;;;;;90.57;37.78;;;;;;;;;;5056256;28;20017;-61
2022/03/18 01:23:45;;;;;;;35.00;16.65;;;;;;;;;;5056670;28;20032;-61
2022/03/18 01:26:11;;;;;;;81.30;34.40;;;;;;;;;;5056117;28;20098;-61
2022/03/18 01:28:36;;;;;;;28.67;14.98;;;;;;;;;;5056389;28;20047;-62
2022/03/18 01:31:02;;;;;;;64.28;28.40;;;;;;;;;;5056468;28;20033;-62
2022/03/18 01:33:27;;;;;;;22.17;12.93;;;;;;;;;;5056352;28;20040;-61
2022/03/18 01:35:53;;;;;;;25.42;13.40;;;;;;;;;;5055067;28;20021;-62
2022/03/18 01:38:18;;;;;;;88.10;40.88;;;;;;;;;;5055734;28;20494;-61
2022/03/18 01:40:43;;;;;;;61.47;31.23;;;;;;;;;;5056281;28;20099;-61
2022/03/18 01:43:09;;;;;;;25.02;13.48;;;;;;;;;;5055882;28;20079;-61
2022/03/18 01:45:35;;;;;;;33.88;18.25;;;;;;;;;;5056039;28;20083;-61
2022/03/18 01:48:01;;;;;;;25.25;14.52;;;;;;;;;;5054874;28;20032;-61
2022/03/18 01:50:26;;;;;;;66.07;33.63;;;;;;;;;;5055308;28;20025;-62
2022/03/18 01:52:52;;;;;;;43.65;22.65;;;;;;;;;;5056033;28;20051;-62
2022/03/18 01:55:19;;;;;;;57.03;30.20;;;;;;;;;;5055831;28;20453;-62
2022/03/18 01:57:45;;;;;;;44.40;24.58;;;;;;;;;;5055696;28;20074;-62
2022/03/18 02:00:11;;;;;;;29.70;17.20;;;;;;;;;;5054444;28;20013;-61
2022/03/18 02:02:39;;;;;;;47.80;24.40;;;;;;;;;;5055749;28;20029;-61
2022/03/18 02:05:05;;;;;;;21.10;13.07;;;;;;;;;;5054401;28;20090;-62
2022/03/18 02:07:31;;;;;;;47.15;24.83;;;;;;;;;;5055610;28;20524;-62
2022/03/18 02:09:57;;;;;;;64.60;35.33;;;;;;;;;;5054518;28;20406;-61
2022/03/18 02:12:22;;;;;;;18.40;12.02;;;;;;;;;;5054320;28;20036;-62
2022/03/18 02:14:48;;;;;;;31.23;18.23;;;;;;;;;;5055558;28;20139;-61
2022/03/18 02:17:14;;;;;;;17.33;11.70;;;;;;;;;;5055466;28;20029;-62
2022/03/18 02:19:40;;;;;;;27.88;16.77;;;;;;;;;;5055384;28;20821;-63
2022/03/18 02:22:10;;;;;;;35.58;19.77;;;;;;;;;;5055549;28;20031;-62
2022/03/18 02:24:46;;;;;;;26.02;15.40;;;;;;;;;;5055499;28;20074;-63
2022/03/18 02:27:12;;;;;;;40.80;20.85;;;;;;;;;;5055227;28;20041;-62
2022/03/18 02:29:38;;;;;;;16.63;10.57;;;;;;;;;;5054969;28;20025;-62
2022/03/18 02:32:04;;;;;;;22.15;12.93;;;;;;;;;;5055007;28;20490;-62
2022/03/18 02:34:30;;;;;;;34.42;18.42;;;;;;;;;;5055003;28;20020;-62
2022/03/18 02:36:56;;;;;;;20.38;12.07;;;;;;;;;;5055087;28;20456;-62
2022/03/18 02:39:23;;;;;;;19.38;12.32;;;;;;;;;;5054916;28;20017;-64
2022/03/18 02:41:49;;;;;;;17.92;11.32;;;;;;;;;;5054771;28;20562;-62
2022/03/18 02:44:15;;;;;;;38.05;22.00;;;;;;;;;;5054893;28;20036;-62
2022/03/18 02:46:41;;;;;;;19.27;11.40;;;;;;;;;;5053302;28;20044;-63
2022/03/18 02:49:06;;;;;;;33.45;20.42;;;;;;;;;;5054023;28;20032;-63
2022/03/18 02:51:32;;;;;;;26.10;15.75;;;;;;;;;;5055096;28;20375;-62
2022/03/18 02:53:58;;;;;;;19.38;13.05;;;;;;;;;;5054813;28;20025;-63
2022/03/18 02:56:23;;;;;;;17.00;11.85;;;;;;;;;;5054818;28;20114;-64
2022/03/18 02:58:49;;;;;;;17.33;11.27;;;;;;;;;;5054759;28;20039;-63
2022/03/18 03:01:15;;;;;;;19.23;13.20;;;;;;;;;;5053579;28;20461;-62
2022/03/18 03:03:40;;;;;;;18.98;12.30;;;;;;;;;;5054553;28;20402;-62
2022/03/18 03:08:50;;;;;;;17.02;10.57;;;;;;;;;;5054559;28;20051;-62
2022/03/18 03:11:16;;;;;;;16.92;11.43;;;;;;;;;;5054410;28;20511;-64
2022/03/18 03:13:42;;;;;;;20.25;13.25;;;;;;;;;;5054697;28;20033;-63
2022/03/18 03:16:08;;;;;;;23.60;14.15;;;;;;;;;;5052978;28;20036;-63
2022/03/18 03:18:34;;;;;;;17.20;9.95;;;;;;;;;;5054507;28;20135;-63
2022/03/18 03:20:59;;;;;;;18.90;12.43;;;;;;;;;;5054428;28;20104;-63
2022/03/18 03:23:25;;;;;;;22.90;13.20;;;;;;;;;;5054519;28;20479;-63
2022/03/18 03:25:52;;;;;;;20.67;13.40;;;;;;;;;;5053755;28;20040;-62
2022/03/18 03:28:17;;;;;;;21.63;14.60;;;;;;;;;;5052915;28;20044;-62
2022/03/18 03:30:44;;;;;;;20.02;14.27;;;;;;;;;;5053969;28;20150;-62
2022/03/18 03:33:09;;;;;;;16.60;11.98;;;;;;;;;;5053892;28;20120;-62
2022/03/18 03:35:35;;;;;;;14.43;10.43;;;;;;;;;;5054166;28;20100;-62
2022/03/18 03:38:00;;;;;;;17.23;11.25;;;;;;;;;;5054140;28;20461;-62
2022/03/18 03:40:26;;;;;;;17.35;11.32;;;;;;;;;;5054107;28;20013;-62
2022/03/18 03:42:53;;;;;;;19.95;12.93;;;;;;;;;;5053638;28;20115;-62
2022/03/18 03:45:18;;;;;;;16.77;11.63;;;;;;;;;;5053860;28;20167;-62
2022/03/18 03:47:44;;;;;;;17.33;10.25;;;;;;;;;;5054082;28;20064;-62
2022/03/18 03:50:09;;;;;;;12.50;9.82;;;;;;;;;;5053844;28;20021;-62
2022/03/18 03:52:35;;;;;;;17.23;10.25;;;;;;;;;;5053719;28;20031;-62
2022/03/18 03:55:01;;;;;;;13.98;9.50;;;;;;;;;;5053736;28;20024;-62
2022/03/18 03:57:27;;;;;;;14.60;10.80;;;;;;;;;;5053788;28;20086;-61
2022/03/18 03:59:52;;;;;;;15.20;10.27;;;;;;;;;;5053320;28;20025;-62
2022/03/18 04:02:20;;;;;;;13.57;9.77;;;;;;;;;;5053588;28;20052;-63
2022/03/18 04:04:47;;;;;;;15.68;10.55;;;;;;;;;;5053868;28;20009;-61
2022/03/18 04:07:12;;;;;;;18.73;9.85;;;;;;;;;;5052460;28;20025;-61
2022/03/18 04:09:37;;;;;;;16.13;10.52;;;;;;;;;;5053629;28;20379;-61
2022/03/18 04:12:04;;;;;;;14.77;9.95;;;;;;;;;;5053492;28;20029;-62
2022/03/18 04:14:29;;;;;;;12.27;9.05;;;;;;;;;;5052063;28;20041;-61
2022/03/18 04:16:56;;;;;;;14.63;10.40;;;;;;;;;;5053215;28;20526;-62
2022/03/18 04:19:21;;;;;;;15.07;9.88;;;;;;;;;;5053356;28;20155;-61
2022/03/18 04:21:47;;;;;;;14.15;9.88;;;;;;;;;;5052266;28;20108;-61
2022/03/18 04:24:12;;;;;;;14.15;9.63;;;;;;;;;;5053177;28;20017;-61
2022/03/18 04:26:38;;;;;;;14.02;9.68;;;;;;;;;;5052753;28;20053;-61
2022/03/18 04:29:03;;;;;;;12.95;8.57;;;;;;;;;;5051929;28;20481;-61
2022/03/18 04:31:29;;;;;;;12.68;9.05;;;;;;;;;;5053298;28;20033;-61
2022/03/18 04:33:54;;;;;;;13.38;8.88;;;;;;;;;;5053419;28;20332;-61
2022/03/18 04:36:20;;;;;;;11.50;9.00;;;;;;;;;;5052931;28;20474;-62
2022/03/18 04:38:45;;;;;;;12.65;9.20;;;;;;;;;;5053181;28;20099;-63
2022/03/18 04:41:11;;;;;;;17.85;10.20;;;;;;;;;;5053388;28;20572;-62
2022/03/18 04:43:36;;;;;;;16.60;10.30;;;;;;;;;;5053134;28;20455;-62
2022/03/18 04:46:02;;;;;;;10.30;7.82;;;;;;;;;;5053055;28;20087;-62
2022/03/18 04:48:27;;;;;;;12.35;9.57;;;;;;;;;;5052931;28;20051;-71
2022/03/18 04:50:58;;;;;;;11.73;9.20;;;;;;;;;;5043334;28;20029;-71
2022/03/18 04:53:23;;;;;;;14.05;10.05;;;;;;;;;;5042745;28;20021;-63
2022/03/18 04:55:49;;;;;;;15.07;9.82;;;;;;;;;;5041634;28;20032;-62
2022/03/18 04:58:14;;;;;;;14.45;8.68;;;;;;;;;;5044700;28;20070;-71
2022/03/18 05:00:40;;;;;;;12.35;8.75;;;;;;;;;;5035574;28;20032;-71
2022/03/18 05:03:06;;;;;;;17.23;11.32;;;;;;;;;;5033256;28;20448;-71
2022/03/18 05:05:32;;;;;;;33.60;17.55;;;;;;;;;;5035086;28;20390;-71
2022/03/18 05:07:58;;;;;;;28.83;16.63;;;;;;;;;;5042196;28;20025;-71
2022/03/18 05:10:24;;;;;;;22.38;13.38;;;;;;;;;;5049180;28;20364;-71
2022/03/18 05:12:50;;;;;;;20.98;12.60;;;;;;;;;;5053814;28;20106;-71
2022/03/18 05:15:16;;;;;;;17.42;10.23;;;;;;;;;;5056072;28;20033;-70
2022/03/18 05:17:48;;;;;;;19.92;12.38;;;;;;;;;;5055397;28;20023;-71
2022/03/18 05:20:14;;;;;;;20.73;14.02;;;;;;;;;;5055691;28;20456;-70
2022/03/18 05:22:39;;;;;;;24.90;16.00;;;;;;;;;;5056584;28;20116;-71
2022/03/18 05:25:05;;;;;;;23.42;14.52;;;;;;;;;;5056273;28;20120;-71
2022/03/18 05:27:31;;;;;;;19.38;11.82;;;;;;;;;;5056350;28;20033;-71
2022/03/18 05:29:56;;;;;;;17.15;11.32;;;;;;;;;;5056518;28;20024;-71
2022/03/18 05:32:22;;;;;;;14.98;11.23;;;;;;;;;;5055918;28;20484;-71
2022/03/18 05:34:48;;;;;;;16.65;12.02;;;;;;;;;;5056197;28;20048;-71
2022/03/18 05:37:13;;;;;;;20.48;13.82;;;;;;;;;;5056427;28;20031;-70
2022/03/18 05:39:39;;;;;;;13.52;10.75;;;;;;;;;;5055979;28;20021;-70
2022/03/18 05:42:05;;;;;;;12.20;9.27;;;;;;;;;;5056259;28;20509;-70
2022/03/18 05:44:31;;;;;;;13.18;9.30;;;;;;;;;;5056109;28;20420;-69
2022/03/18 05:46:56;;;;;;;26.38;16.60;;;;;;;;;;5056070;28;20033;-69
2022/03/18 05:49:22;;;;;;;28.90;19.67;;;;;;;;;;5055865;28;20025;-69
2022/03/18 05:51:48;;;;;;;31.58;22.73;;;;;;;;;;5055605;28;20040;-69
2022/03/18 05:54:14;;;;;;;111.57;58.35;;;;;;;;;;5055190;28;20017;-69
2022/03/18 05:56:55;;;;;;;59.90;36.42;;;;;;;;;;5055793;28;20098;-71
2022/03/18 05:59:25;;;;;;;109.70;58.90;;;;;;;;;;5056130;28;20036;-69
2022/03/18 06:01:53;;;;;;;36.28;26.88;;;;;;;;;;5055817;28;20490;-70
2022/03/18 06:04:18;;;;;;;12.02;9.50;;;;;;;;;;5055929;28;20463;-70
2022/03/18 06:06:44;;;;;;;15.60;11.10;;;;;;;;;;5055813;28;20035;-70
2022/03/18 06:11:55;;;;;;;15.13;12.57;;;;;;;;;;5055418;28;20040;-70
2022/03/18 06:14:24;;;;;;;15.77;10.27;;;;;;;;;;5055244;28;20100;-70
2022/03/18 06:16:52;;;;;;;18.85;12.27;;;;;;;;;;5055306;28;20029;-70
2022/03/18 06:19:18;;;;;;;26.15;22.30;;;;;;;;;;5055090;28;20383;-69
2022/03/18 06:21:44;;;;;;;12.50;9.38;;;;;;;;;;5055094;28;20021;-69
2022/03/18 06:24:10;;;;;;;12.18;9.27;;;;;;;;;;5054867;28;20067;-69
2022/03/18 06:26:36;;;;;;;10.90;7.90;;;;;;;;;;5054217;28;20049;-69
2022/03/18 06:29:02;;;;;;;13.80;9.77;;;;;;;;;;5054802;28;20037;-69
2022/03/18 06:31:27;;;;;;;11.35;9.65;;;;;;;;;;5055015;28;20486;-69
2022/03/18 06:33:53;;;;;;;12.18;8.75;;;;;;;;;;5054860;28;20115;-69
2022/03/18 06:36:18;;;;;;;10.98;7.53;;;;;;;;;;5054890;28;20383;-70
2022/03/18 06:38:44;;;;;;;11.68;8.93;;;;;;;;;;5054793;28;20497;-69
2022/03/18 06:41:09;;;;;;;16.65;11.40;;;;;;;;;;5053753;28;20405;-69
2022/03/18 06:43:35;;;;;;;19.52;14.23;;;;;;;;;;5054792;28;20104;-69
2022/03/18 06:46:02;;;;;;;16.02;11.27;;;;;;;;;;5053309;28;20025;-69
2022/03/18 06:48:27;;;;;;;13.15;9.85;;;;;;;;;;5053294;28;20025;-69
2022/03/18 06:50:53;;;;;;;17.77;13.85;;;;;;;;;;5054575;28;20025;-69
2022/03/18 06:53:18;;;;;;;13.00;9.95;;;;;;;;;;5054450;28;20047;-69
2022/03/18 06:55:44;;;;;;;14.80;10.80;;;;;;;;;;5054461;28;20021;-65
2022/03/18 06:58:09;;;;;;;26.45;13.93;;;;;;;;;;5054406;28;20047;-65
2022/03/18 07:00:36;;;;;;;15.52;9.82;;;;;;;;;;5054402;28;20013;-65
2022/03/18 07:03:02;;;;;;;13.27;9.52;;;;;;;;;;5054544;28;20463;-65
2022/03/18 07:05:27;;;;;;;10.38;8.25;;;;;;;;;;5054227;28;20029;-65
2022/03/18 07:07:53;;;;;;;13.40;11.73;;;;;;;;;;5054206;28;20025;-65
2022/03/18 07:10:18;;;;;;;15.27;11.80;;;;;;;;;;5054151;28;20031;-64
2022/03/18 07:12:44;;;;;;;13.85;10.02;;;;;;;;;;5054047;28;20044;-65
2022/03/18 07:15:09;;;;;;;14.93;10.25;;;;;;;;;;5053974;28;20029;-65
2022/03/18 07:20:19;;;;;;;26.70;20.58;;;;;;;;;;5053925;28;20479;-65
2022/03/18 07:22:44;;;;;;;13.30;7.85;;;;;;;;;;5054052;28;20036;-66
2022/03/18 07:25:10;;;;;;;9.55;8.13;;;;;;;;;;5053780;28;20505;-65
2022/03/18 07:27:36;;;;;;;11.82;8.90;;;;;;;;;;5054024;28;20035;-65
2022/03/18 07:30:05;;;;;;;19.17;13.50;;;;;;;;;;5053864;28;20032;-66
2022/03/18 07:32:30;;;;;;;20.83;13.43;;;;;;;;;;5052475;28;20025;-65
2022/03/18 07:34:56;;;;;;;17.83;9.27;;;;;;;;;;5053169;28;20024;-65
2022/03/18 07:37:22;;;;;;;13.73;9.95;;;;;;;;;;5053677;28;20078;-67
2022/03/18 07:39:47;;;;;;;10.82;8.70;;;;;;;;;;5053627;28;20044;-67
2022/03/18 07:42:13;;;;;;;13.02;8.45;;;;;;;;;;5053564;28;20033;-67
2022/03/18 07:44:38;;;;;;;11.10;8.10;;;;;;;;;;5053491;28;20035;-67
2022/03/18 07:47:04;;;;;;;14.77;10.35;;;;;;;;;;5053512;28;20067;-67
2022/03/18 07:49:29;;;;;;;11.35;8.70;;;;;;;;;;5053651;28;20364;-67
2022/03/18 07:51:55;;;;;;;11.38;8.20;;;;;;;;;;5053685;28;20528;-67
2022/03/18 07:54:20;;;;;;;16.33;10.57;;;;;;;;;;5052210;28;20545;-67
2022/03/18 07:56:46;;;;;;;30.20;14.68;;;;;;;;;;5053369;28;20029;-67
2022/03/18 07:59:12;;;;;;;14.65;10.45;;;;;;;;;;5053330;28;20016;-67
2022/03/18 08:01:39;;;;;;;9.73;7.78;;;;;;;;;;5053282;28;20029;-67
2022/03/18 08:04:05;;;;;;;9.65;7.07;;;;;;;;;;5053137;28;20473;-67
2022/03/18 08:06:30;;;;;;;12.40;9.05;;;;;;;;;;5053251;28;20098;-67
2022/03/18 08:08:56;;;;;;;14.50;9.52;;;;;;;;;;5053097;28;20099;-67
2022/03/18 08:11:22;;;;;;;12.00;8.80;;;;;;;;;;5053115;28;20166;-67
2022/03/18 08:13:49;;;;;;;14.18;10.48;;;;;;;;;;5052560;28;20441;-67
2022/03/18 08:16:15;;;;;;;11.73;8.95;;;;;;;;;;5053294;28;20110;-67
2022/03/18 08:18:40;;;;;;;10.23;8.25;;;;;;;;;;5054444;28;20020;-61
2022/03/18 08:21:06;;;;;;;12.35;8.55;;;;;;;;;;5051334;28;20025;-61
2022/03/18 08:23:33;;;;;;;13.70;8.43;;;;;;;;;;5051733;28;20470;-61
2022/03/18 08:25:59;;;;;;;10.35;7.90;;;;;;;;;;5051656;28;20076;-61
2022/03/18 08:28:25;;;;;;;13.57;8.70;;;;;;;;;;5052152;28;20060;-61
2022/03/18 08:30:51;;;;;;;13.27;8.77;;;;;;;;;;5052174;28;20454;-61
2022/03/18 08:33:16;;;;;;;9.25;6.85;;;;;;;;;;5051036;28;20035;-61
2022/03/18 08:35:42;;;;;;;11.07;8.20;;;;;;;;;;5052949;28;20017;-61
2022/03/18 08:38:09;;;;;;;9.93;7.50;;;;;;;;;;5052816;28;20112;-62
2022/03/18 08:40:36;;;;;;;10.48;7.88;;;;;;;;;;5051643;28;20075;-61
2022/03/18 08:43:07;;;;;;;10.88;7.63;;;;;;;;;;5052962;28;20116;-61
2022/03/18 08:45:34;;;;;;;12.18;8.40;;;;;;;;;;5052893;28;20083;-61
2022/03/18 08:48:00;;;;;;;13.32;8.25;;;;;;;;;;5054118;28;20024;-61
2022/03/18 08:50:26;;;;;;;13.25;7.95;;;;;;;;;;5055686;28;20103;-61
2022/03/18 08:52:53;;;;;;;7.35;6.43;;;;;;;;;;5055446;28;20021;-61
2022/03/18 08:55:19;;;;;;;10.18;7.43;;;;;;;;;;5056788;28;20037;-61
2022/03/18 08:57:45;;;;;;;12.98;9.00;;;;;;;;;;5056716;28;20475;-61
2022/03/18 09:00:14;;;;;;;12.25;8.50;;;;;;;;;;5056671;28;20066;-62
2022/03/18 09:02:40;;;;;;;13.30;8.18;;;;;;;;;;5056612;28;20016;-61
2022/03/18 09:05:08;;;;;;;9.75;7.28;;;;;;;;;;5055196;28;20021;-61
2022/03/18 09:07:34;;;;;;;11.73;7.50;;;;;;;;;;5056086;28;20021;-61
2022/03/18 09:10:00;;;;;;;13.15;8.63;;;;;;;;;;5056428;28;20407;-61
2022/03/18 09:12:25;;;;;;;12.90;8.77;;;;;;;;;;5056267;28;20013;-61
2022/03/18 09:14:51;;;;;;;12.55;8.55;;;;;;;;;;5056434;28;20083;-61
2022/03/18 09:17:17;;;;;;;9.52;5.68;;;;;;;;;;5056387;28;20017;-61
2022/03/18 09:19:43;;;;;;;9.20;7.03;;;;;;;;;;5056255;28;20017;-61
2022/03/18 09:22:09;;;;;;;9.93;7.57;;;;;;;;;;5056336;28;20027;-61
2022/03/18 09:24:35;;;;;;;12.73;8.38;;;;;;;;;;5056095;28;20453;-61
2022/03/18 09:27:01;;;;;;;9.68;6.28;;;;;;;;;;5054761;28;20083;-61
2022/03/18 09:29:26;;;;;;;10.65;6.13;;;;;;;;;;5055976;28;20083;-61
2022/03/18 09:31:53;;;;;;;13.55;8.57;;;;;;;;;;5056117;28;20024;-61
2022/03/18 09:34:24;;;;;;;11.00;7.93;;;;;;;;;;5055921;28;20037;-61
2022/03/18 09:36:59;;;;;;;8.00;6.95;;;;;;;;;;5055881;28;20028;-61
2022/03/18 09:39:25;;;;;;;12.77;8.63;;;;;;;;;;5054670;28;20101;-61
2022/03/18 09:41:51;;;;;;;10.85;6.60;;;;;;;;;;5054568;28;20035;-61
2022/03/18 09:44:17;;;;;;;11.13;7.32;;;;;;;;;;5054421;28;20360;-61
2022/03/18 09:46:45;;;;;;;9.00;6.60;;;;;;;;;;5054727;28;20029;-61
2022/03/18 09:49:12;;;;;;;10.10;7.78;;;;;;;;;;5055765;28;20032;-61
2022/03/18 09:51:39;;;;;;;9.45;6.82;;;;;;;;;;5054457;28;20021;-61
2022/03/18 09:54:06;;;;;;;10.25;7.65;;;;;;;;;;5055505;28;20036;-61
2022/03/18 09:56:33;;;;;;;11.98;7.30;;;;;;;;;;5055680;28;20144;-61
2022/03/18 09:58:58;;;;;;;9.90;7.97;;;;;;;;;;5055043;28;20583;-61
2022/03/18 10:01:24;;;;;;;8.05;7.07;;;;;;;;;;5055365;28;20017;-61
2022/03/18 10:03:50;;;;;;;8.77;6.82;;;;;;;;;;5054343;28;20079;-61
2022/03/18 10:06:16;;;;;;;9.23;7.30;;;;;;;;;;5054137;28;20578;-61
2022/03/18 10:08:42;;;;;;;9.77;7.72;;;;;;;;;;5055225;28;20045;-61
2022/03/18 10:11:18;;;;;;;8.75;6.50;;;;;;;;;;5055327;28;20421;-61
2022/03/18 10:13:49;;;;;;;9.07;7.30;;;;;;;;;;5055200;28;20079;-61
2022/03/18 10:16:21;;;;;;;8.15;5.90;;;;;;;;;;5055236;28;20035;-61
2022/03/18 10:22:49;;;;;;;8.48;6.53;;;;;;;;;;5055889;28;20403;-62
2022/03/18 13:34:38;;;;;;;25.45;18.13;;;;;;;;;;4646251;28;20055;-62
2022/03/18 13:37:30;;;;;;;13.23;8.93;;;;;;;;;;5075975;28;20032;-62
2022/03/18 13:40:07;;;;;;;15.07;10.52;;;;;;;;;;5071003;28;20119;-62
2022/03/18 13:42:32;;;;;;;12.88;9.77;;;;;;;;;;5076011;28;20487;-62
2022/03/18 13:44:58;;;;;;;16.00;10.80;;;;;;;;;;5075755;28;20031;-62
2022/03/18 13:47:26;;;;;;;17.20;10.32;;;;;;;;;;5075628;28;20128;-62
2022/03/18 13:49:57;;;;;;;16.95;10.10;;;;;;;;;;5058135;28;20053;-62
2022/03/18 13:52:31;;;;;;;18.73;10.57;;;;;;;;;;5058168;28;20036;-62
2022/03/18 13:54:58;;;;;;;17.38;9.70;;;;;;;;;;5058136;28;20559;-62
2022/03/18 13:57:25;;;;;;;13.02;9.27;;;;;;;;;;5075836;28;20028;-62
2022/03/18 14:00:00;;;;;;;23.17;16.30;;;;;;;;;;5076181;28;20040;-62
2022/03/18 14:02:28;;;;;;;16.58;7.68;;;;;;;;;;5058078;28;20132;-62
2022/03/18 14:04:54;;;;;;;10.00;7.25;;;;;;;;;;5075867;28;20064;-62
2022/03/18 14:07:21;;;;;;;25.65;18.95;;;;;;;;;;5075901;28;20041;-62
2022/03/18 14:09:54;;;;;;;36.45;20.00;;;;;;;;;;5057798;28;20437;-62
2022/03/18 14:12:19;;;;;;;25.77;18.08;;;;;;;;;;5075005;28;20410;-61
2022/03/18 14:14:45;;;;;;;19.38;15.48;;;;;;;;;;5075686;28;20037;-61
2022/03/18 14:17:11;;;;;;;12.27;9.52;;;;;;;;;;5075225;28;20025;-61
2022/03/18 14:19:44;;;;;;;16.33;11.90;;;;;;;;;;5075140;28;20501;-60
2022/03/18 14:22:31;;;;;;;13.25;8.88;;;;;;;;;;5075509;28;20035;-60
2022/03/18 14:24:57;;;;;;;9.55;7.30;;;;;;;;;;5058345;28;20047;-60
2022/03/18 14:27:24;;;;;;;11.00;7.50;;;;;;;;;;5075042;28;20414;-60
2022/03/18 14:29:50;;;;;;;10.88;7.20;;;;;;;;;;5075187;28;20037;-60
2022/03/18 14:32:16;;;;;;;9.88;7.57;;;;;;;;;;5075392;28;20064;-60
2022/03/18 14:34:43;;;;;;;11.55;7.50;;;;;;;;;;5074689;28;20051;-60
2022/03/18 14:37:08;;;;;;;11.18;7.25;;;;;;;;;;5075108;28;20037;-60
2022/03/18 14:39:34;;;;;;;14.15;9.40;;;;;;;;;;5056710;28;20082;-63
2022/03/18 14:42:00;;;;;;;12.52;8.38;;;;;;;;;;5075004;28;20024;-64
2022/03/18 14:44:25;;;;;;;10.95;8.52;;;;;;;;;;5074691;28;20471;-64
2022/03/18 14:46:51;;;;;;;18.38;12.50;;;;;;;;;;5074508;28;20072;-64
2022/03/18 14:49:16;;;;;;;17.83;11.68;;;;;;;;;;5074806;28;20051;-64
2022/03/18 14:51:42;;;;;;;13.60;8.43;;;;;;;;;;5074435;28;20379;-64
2022/03/18 14:54:08;;;;;;;11.23;7.57;;;;;;;;;;5074722;28;20078;-64
2022/03/18 14:56:33;;;;;;;10.85;9.00;;;;;;;;;;5056602;28;20033;-63
2022/03/18 14:58:59;;;;;;;13.38;8.80;;;;;;;;;;5074422;28;20421;-64
2022/03/18 15:01:25;;;;;;;13.15;9.55;;;;;;;;;;5074395;28;20044;-64
2022/03/18 15:03:51;;;;;;;47.22;22.15;;;;;;;;;;5056184;28;20032;-64
2022/03/18 15:06:17;;;;;;;19.98;11.68;;;;;;;;;;5056715;28;20070;-63
2022/03/18 15:08:46;;;;;;;16.52;10.70;;;;;;;;;;5056576;28;20033;-64
2022/03/18 15:11:12;;;;;;;10.55;8.30;;;;;;;;;;5074814;28;20062;-60
2022/03/18 15:13:39;;;;;;;28.85;19.58;;;;;;;;;;5074441;28;20478;-59
2022/03/18 15:16:04;;;;;;;20.73;15.13;;;;;;;;;;5074544;28;20035;-60
2022/03/18 15:18:30;;;;;;;37.15;28.02;;;;;;;;;;5074208;28;20534;-60
2022/03/18 15:20:56;;;;;;;25.10;17.70;;;;;;;;;;5056373;28;20037;-60
2022/03/18 15:23:22;;;;;;;18.17;14.85;;;;;;;;;;5074139;28;20488;-60
2022/03/18 15:25:49;;;;;;;23.95;15.43;;;;;;;;;;5074105;28;20032;-60
2022/03/18 15:28:18;;;;;;;14.18;12.18;;;;;;;;;;5074019;28;20036;-60
2022/03/18 15:30:45;;;;;;;13.68;10.23;;;;;;;;;;5056289;28;20040;-60
2022/03/18 15:33:10;;;;;;;21.10;17.15;;;;;;;;;;5074164;28;20060;-60
2022/03/18 15:35:37;;;;;;;21.15;14.07;;;;;;;;;;5073775;28;20041;-60
2022/03/18 15:38:03;;;;;;;15.45;10.02;;;;;;;;;;5074123;28;20037;-60
2022/03/18 15:40:33;;;;;;;36.50;18.80;;;;;;;;;;5073616;28;20032;-59
2022/03/18 15:43:06;;;;;;;20.35;15.55;;;;;;;;;;5065920;28;20487;-59
2022/03/18 15:45:32;;;;;;;14.38;10.35;;;;;;;;;;5070586;28;20118;-59
2022/03/18 15:47:58;;;;;;;15.93;10.55;;;;;;;;;;5070401;28;20071;-59
2022/03/18 15:50:26;;;;;;;20.42;12.65;;;;;;;;;;5073701;28;20527;-59
2022/03/18 15:52:52;;;;;;;11.88;9.00;;;;;;;;;;5073538;28;20017;-59
2022/03/18 15:55:23;;;;;;;36.55;23.58;;;;;;;;;;5073472;28;20046;-59
2022/03/18 15:57:51;;;;;;;;;;;;;;;;;;5073843;28;20119;-59
2022/03/18 16:00:17;;;;;;;60.85;47.63;;;;;;;;;;5073506;28;19999;-59
2022/03/18 16:02:44;;;;;;;44.50;30.75;;;;;;;;;;5073348;28;20037;-59
2022/03/18 16:05:11;;;;;;;38.63;23.88;;;;;;;;;;5073314;28;20028;-59
2022/03/18 16:07:38;;;;;;;18.85;11.40;;;;;;;;;;5073396;28;20059;-59
2022/03/18 16:10:03;;;;;;;18.25;10.65;;;;;;;;;;5038689;28;20059;-59
2022/03/18 16:12:29;;;;;;;36.47;22.85;;;;;;;;;;5073227;28;20064;-59
2022/03/18 16:14:57;;;;;;;18.98;13.90;;;;;;;;;;5055273;28;20459;-59
2022/03/18 16:17:23;;;;;;;18.55;14.27;;;;;;;;;;5055264;28;20032;-59
2022/03/18 16:19:49;;;;;;;17.85;13.23;;;;;;;;;;5073063;28;20477;-59
2022/03/18 16:22:33;;;;;;;50.80;28.98;;;;;;;;;;5073395;28;20040;-59
2022/03/18 16:25:03;;;;;;;102.78;50.95;;;;;;;;;;5073486;28;20079;-59
2022/03/18 16:27:29;;;;;;;43.47;29.10;;;;;;;;;;5055551;28;20040;-59
2022/03/18 16:29:56;;;;;;;121.70;66.50;;;;;;;;;;5073281;28;20463;-59
2022/03/18 16:32:23;;;;;;;105.07;57.75;;;;;;;;;;5073125;28;20032;-59
2022/03/18 16:34:51;;;;;;;77.78;62.65;;;;;;;;;;5072932;28;20051;-59
2022/03/18 16:37:17;;;;;;;48.85;39.80;;;;;;;;;;5073116;28;20028;-58
2022/03/18 16:39:46;;;;;;;59.08;36.15;;;;;;;;;;5073136;28;20115;-59
2022/03/18 16:42:11;;;;;;;55.60;32.58;;;;;;;;;;5073093;28;20032;-59
2022/03/18 16:44:37;;;;;;;149.35;81.55;;;;;;;;;;5073126;28;20497;-59
2022/03/18 16:49:48;;;;;;;134.40;79.30;;;;;;;;;;5072988;28;20047;-59
2022/03/18 16:52:14;;;;;;;87.95;49.25;;;;;;;;;;5072558;28;20478;-59
2022/03/18 16:54:46;;;;;;;120.97;69.90;;;;;;;;;;5073104;28;20044;-59
2022/03/18 16:57:15;;;;;;;77.18;45.13;;;;;;;;;;5073052;28;20029;-60
2022/03/18 16:59:45;;;;;;;108.22;45.70;;;;;;;;;;5072850;28;20033;-59
2022/03/18 17:02:11;;;;;;;175.02;53.55;;;;;;;;;;5073072;28;20394;-59
2022/03/18 17:04:37;;;;;;;410.90;120.53;;;;;;;;;;5073033;28;20028;-59
2022/03/18 17:07:04;;;;;;;119.70;41.00;;;;;;;;;;5054940;28;20041;-59
2022/03/18 17:09:30;;;;;;;88.25;33.97;;;;;;;;;;5075982;28;20024;-59
2022/03/18 17:11:57;;;;;;;94.38;35.58;;;;;;;;;;5058988;28;20106;-59
2022/03/18 17:14:23;;;;;;;168.30;55.90;;;;;;;;;;5076518;28;20044;-64
2022/03/18 17:16:49;;;;;;;245.48;76.82;;;;;;;;;;5076455;28;20068;-63
2022/03/18 17:19:16;;;;;;;159.65;61.30;;;;;;;;;;5076248;28;20417;-63
2022/03/18 17:21:43;;;;;;;79.45;33.97;;;;;;;;;;5058763;28;20068;-63
2022/03/18 17:24:09;;;;;;;53.70;26.73;;;;;;;;;;5076235;28;20769;-64
2022/03/18 17:26:36;;;;;;;68.00;38.08;;;;;;;;;;5076464;28;20036;-64
2022/03/18 17:29:02;;;;;;;67.97;34.90;;;;;;;;;;5076019;28;20551;-64
2022/03/18 17:31:29;;;;;;;66.50;34.50;;;;;;;;;;5075759;28;20557;-64
2022/03/18 17:33:55;;;;;;;59.97;31.83;;;;;;;;;;5058092;28;20099;-64
2022/03/18 17:36:22;;;;;;;68.03;37.78;;;;;;;;;;5075139;28;20040;-63
2022/03/18 17:38:49;;;;;;;49.80;31.90;;;;;;;;;;5075401;28;20073;-64
2022/03/18 17:41:15;;;;;;;58.75;34.90;;;;;;;;;;5075776;28;20525;-63
2022/03/18 17:43:41;;;;;;;90.15;52.85;;;;;;;;;;5075840;28;20032;-64